Time;durP1;ratioP1;P1;durP2;ratioP2;P2;SDS_P1;SDS_P2;PMS_P1;PMS_P2;Temp;Humidity;BMP_temperature;BMP_pressure;BME280_temperature;BME280_humidity;BME280_pressure;Samples;Min_cycle;Max_cycle;Signal;HPM_P1;HPM_P2
2020/12/31 00:00:46;;;;;;;;;127.25;101.50;;;;;5.29;99.07;98902.69;4964532;28;8861;-51
2020/12/31 00:03:13;;;;;;;;;117.50;91.25;;;;;5.33;99.15;98906.91;4956353;28;8931;-50
2020/12/31 00:05:40;;;;;;;;;131.75;99.75;;;;;5.35;100.00;98897.06;4956292;28;8858;-53
2020/12/31 00:08:07;;;;;;;;;92.50;65.50;;;;;5.34;100.00;98905.97;4957002;28;8850;-52
2020/12/31 00:10:34;;;;;;;;;114.50;89.75;;;;;5.32;99.34;98891.00;4966950;28;8911;-52
2020/12/31 00:13:01;;;;;;;;;123.75;101.50;;;;;5.34;100.00;98899.78;4955939;28;8839;-54
2020/12/31 00:15:31;;;;;;;;;112.50;88.50;;;;;5.37;99.84;98900.50;4955931;29;8846;-56
2020/12/31 00:17:57;;;;;;;;;114.75;94.25;;;;;5.32;99.16;98897.22;4956491;29;8910;-54
2020/12/31 00:20:25;;;;;;;;;108.50;91.75;;;;;5.35;99.57;98893.53;4958247;28;8843;-55
2020/12/31 00:22:52;;;;;;;;;104.50;79.50;;;;;5.26;99.39;98902.84;4956145;28;8838;-55
2020/12/31 00:25:19;;;;;;;;;108.00;88.00;;;;;5.25;100.00;98898.47;4973370;28;8840;-57
2020/12/31 00:27:46;;;;;;;;;108.50;89.00;;;;;5.22;99.06;98893.31;4955741;28;8839;-54
2020/12/31 00:30:17;;;;;;;;;115.25;96.00;;;;;5.20;99.57;98901.38;4972891;28;8832;-54
2020/12/31 00:32:45;;;;;;;;;113.75;89.50;;;;;5.16;100.00;98907.81;4975362;28;8856;-52
2020/12/31 00:35:19;;;;;;;;;109.25;86.25;;;;;5.21;99.07;98911.09;4956190;28;8830;-51
2020/12/31 00:37:46;;;;;;;;;108.50;90.00;;;;;5.30;99.48;98907.09;4955999;28;8854;-53
2020/12/31 00:40:13;;;;;;;;;108.75;84.75;;;;;5.23;99.95;98922.50;4972175;28;8851;-53
2020/12/31 00:42:40;;;;;;;;;107.25;81.50;;;;;5.21;100.00;98928.84;4956134;28;8823;-53
2020/12/31 00:45:07;;;;;;;;;105.00;77.25;;;;;5.22;99.98;98930.59;4956273;28;9568;-52
2020/12/31 00:47:34;;;;;;;;;105.50;76.25;;;;;5.20;99.50;98925.31;4956317;28;8847;-53
2020/12/31 00:50:00;;;;;;;;;108.00;83.50;;;;;5.20;100.00;98935.13;4956642;28;8885;-55
2020/12/31 00:52:27;;;;;;;;;99.75;74.25;;;;;5.27;99.62;98934.72;4955659;28;8869;-53
2020/12/31 00:54:54;;;;;;;;;100.50;73.00;;;;;5.26;100.00;98942.78;4955131;29;9566;-53
2020/12/31 00:57:21;;;;;;;;;100.50;73.00;;;;;5.32;100.00;98934.50;4955647;29;8870;-54
2020/12/31 00:59:47;;;;;;;;;98.50;71.00;;;;;5.38;99.77;98939.47;4971593;28;8850;-52
2020/12/31 01:02:14;;;;;;;;;91.25;64.75;;;;;5.37;100.00;98939.53;4974896;28;8864;-52
2020/12/31 01:04:41;;;;;;;;;97.25;70.50;;;;;5.41;99.98;98939.31;4957901;28;9545;-56
2020/12/31 01:07:08;;;;;;;;;99.75;70.75;;;;;5.39;99.95;98941.19;4959512;28;8873;-52
2020/12/31 01:09:35;;;;;;;;;92.25;65.50;;;;;5.48;99.82;98943.38;4959181;28;8830;-54
2020/12/31 01:12:03;;;;;;;;;85.50;64.00;;;;;5.58;99.60;98934.88;4959239;28;8883;-55
2020/12/31 01:14:29;;;;;;;;;86.75;61.75;;;;;5.56;98.53;98931.47;4958534;28;8905;-51
2020/12/31 01:16:56;;;;;;;;;89.00;65.50;;;;;5.65;99.44;98930.97;4959340;28;8815;-55
2020/12/31 01:19:23;;;;;;;;;83.50;63.00;;;;;5.49;99.37;98926.47;4968266;28;8871;-53
2020/12/31 01:21:50;;;;;;;;;87.00;63.00;;;;;5.45;98.48;98930.25;4959465;28;8889;-55
2020/12/31 01:24:17;;;;;;;;;93.00;66.00;;;;;5.58;99.65;98913.59;4969304;28;8843;-52
2020/12/31 01:26:44;;;;;;;;;91.50;63.75;;;;;5.66;99.02;98922.91;4959305;28;8823;-52
2020/12/31 01:29:11;;;;;;;;;96.50;68.50;;;;;5.60;98.67;98917.91;4969599;28;8866;-54
2020/12/31 01:31:38;;;;;;;;;82.75;61.25;;;;;5.50;99.28;98906.00;4960604;28;8865;-54
2020/12/31 01:34:07;;;;;;;;;97.25;69.50;;;;;5.48;98.98;98913.25;4959221;28;8835;-54
2020/12/31 01:36:34;;;;;;;;;89.00;63.00;;;;;5.56;98.25;98905.69;4959558;28;8830;-52
2020/12/31 01:39:01;;;;;;;;;100.75;75.25;;;;;5.54;99.22;98909.38;4966738;28;8836;-54
2020/12/31 01:41:28;;;;;;;;;95.25;69.25;;;;;5.52;98.25;98898.81;4978182;28;9033;-54
2020/12/31 01:44:12;;;;;;;;;95.75;70.50;;;;;5.54;98.72;98899.59;4968390;28;8803;-52
2020/12/31 01:46:44;;;;;;;;;99.00;71.25;;;;;5.60;97.95;98898.41;4959329;28;8962;-51
2020/12/31 01:49:19;;;;;;;;;97.50;69.50;;;;;5.43;98.85;98899.31;4960021;28;8839;-53
2020/12/31 01:51:50;;;;;;;;;102.25;71.25;;;;;5.39;98.62;98889.75;4958375;28;8854;-54
2020/12/31 01:54:18;;;;;;;;;94.00;71.25;;;;;5.52;98.31;98887.31;4957828;28;8857;-54
2020/12/31 01:56:49;;;;;;;;;94.75;70.25;;;;;5.53;98.41;98886.34;4958921;28;8977;-51
2020/12/31 01:59:16;;;;;;;;;93.25;68.50;;;;;5.61;98.95;98884.13;4962116;28;8835;-54
2020/12/31 02:01:44;;;;;;;;;90.75;66.00;;;;;5.58;98.54;98887.84;4958710;28;8890;-55
2020/12/31 02:04:11;;;;;;;;;87.75;62.25;;;;;5.54;98.71;98880.09;4958569;28;8930;-54
2020/12/31 02:06:38;;;;;;;;;82.50;61.00;;;;;5.47;98.63;98887.53;4960255;28;8819;-54
2020/12/31 02:09:06;;;;;;;;;91.50;66.75;;;;;5.53;98.50;98889.91;4972833;28;8941;-51
2020/12/31 02:11:33;;;;;;;;;90.00;66.25;;;;;5.56;98.60;98883.53;4977575;28;8874;-51
2020/12/31 02:14:01;;;;;;;;;95.00;67.75;;;;;5.42;98.81;98890.44;4966676;28;8835;-54
2020/12/31 02:16:34;;;;;;;;;93.50;67.75;;;;;5.35;97.93;98889.06;4957663;28;8877;-54
2020/12/31 02:19:19;;;;;;;;;55.00;37.00;;;;;5.32;98.43;98901.66;4965695;28;8863;-51
2020/12/31 02:21:51;;;;;;;;;89.25;65.00;;;;;5.32;99.56;98902.56;4977925;28;8900;-53
2020/12/31 02:24:22;;;;;;;;;92.25;65.25;;;;;5.42;99.29;98902.91;4960663;28;8831;-56
2020/12/31 02:26:50;;;;;;;;;93.25;66.00;;;;;5.37;98.97;98905.84;4961512;28;8840;-55
2020/12/31 02:29:18;;;;;;;;;86.75;63.50;;;;;5.55;98.99;98908.44;4967182;28;8847;-51
2020/12/31 02:31:47;;;;;;;;;92.00;66.25;;;;;5.50;98.58;98906.91;4977593;28;8878;-54
2020/12/31 02:34:15;;;;;;;;;96.50;68.50;;;;;5.36;98.17;98909.41;4959352;28;8823;-52
2020/12/31 02:36:42;;;;;;;;;88.75;62.50;;;;;5.44;98.71;98901.88;4957639;28;8843;-53
2020/12/31 02:39:14;;;;;;;;;92.25;69.00;;;;;5.55;98.33;98908.44;4964947;28;8829;-55
2020/12/31 02:41:41;;;;;;;;;86.50;64.75;;;;;5.43;98.41;98907.31;4970271;28;8855;-54
2020/12/31 02:44:09;;;;;;;;;94.00;65.25;;;;;5.49;98.51;98899.84;4957159;28;8839;-55
2020/12/31 02:46:36;;;;;;;;;92.75;65.50;;;;;5.41;97.96;98901.19;4963447;28;8824;-54
2020/12/31 02:49:04;;;;;;;;;98.00;67.25;;;;;5.58;98.39;98892.28;4968444;28;8832;-55
2020/12/31 02:51:31;;;;;;;;;90.50;64.25;;;;;5.41;98.99;98888.75;4957683;28;8839;-53
2020/12/31 02:53:57;;;;;;;;;94.00;68.25;;;;;5.33;99.04;98882.97;4957208;28;9538;-52
2020/12/31 02:56:25;;;;;;;;;97.00;66.50;;;;;5.42;98.52;98881.59;4956018;28;8839;-53
2020/12/31 02:58:52;;;;;;;;;99.00;70.50;;;;;5.26;99.26;98881.56;4957668;28;9475;-55
2020/12/31 03:01:21;;;;;;;;;92.25;65.00;;;;;5.31;99.27;98884.00;4968095;28;8865;-56
2020/12/31 03:03:52;;;;;;;;;109.75;76.25;;;;;5.25;99.18;98893.16;4983040;28;8854;-55
2020/12/31 03:06:19;;;;;;;;;89.75;61.50;;;;;5.38;99.58;98891.56;4977128;28;8849;-55
2020/12/31 03:08:47;;;;;;;;;92.50;65.50;;;;;5.43;98.73;98894.00;4958956;28;8902;-53
2020/12/31 03:11:22;;;;;;;;;92.50;64.00;;;;;5.44;99.06;98895.69;4977137;28;8859;-54
2020/12/31 03:13:53;;;;;;;;;94.25;67.25;;;;;5.38;98.14;98882.72;4960922;28;8851;-52
2020/12/31 03:16:25;;;;;;;;;80.75;61.75;;;;;5.41;97.86;98888.75;4957212;28;8945;-54
2020/12/31 03:18:52;;;;;;;;;80.00;61.25;;;;;5.41;98.68;98885.22;4960604;28;9464;-53
2020/12/31 03:21:20;;;;;;;;;77.75;58.75;;;;;5.41;98.44;98885.22;4977282;28;8895;-55
2020/12/31 03:23:47;;;;;;;;;80.00;59.25;;;;;5.28;99.04;98879.69;4976674;28;8864;-54
2020/12/31 03:26:16;;;;;;;;;75.50;55.00;;;;;5.35;99.10;98881.09;4973747;28;8847;-54
2020/12/31 03:28:43;;;;;;;;;73.25;55.00;;;;;5.29;98.42;98876.06;4959496;28;8836;-54
2020/12/31 03:31:10;;;;;;;;;75.50;56.25;;;;;5.32;99.04;98875.94;4958913;28;8873;-57
2020/12/31 03:33:36;;;;;;;;;73.00;55.75;;;;;5.34;99.17;98863.38;4956843;28;8839;-53
2020/12/31 03:36:03;;;;;;;;;72.25;52.75;;;;;5.46;98.06;98865.41;4957188;28;8835;-54
2020/12/31 03:38:30;;;;;;;;;63.25;47.75;;;;;5.39;98.51;98863.13;4958002;28;8863;-53
2020/12/31 03:40:57;;;;;;;;;79.25;54.50;;;;;5.40;97.59;98863.06;4976442;28;8852;-57
2020/12/31 03:43:24;;;;;;;;;71.25;53.50;;;;;5.47;98.74;98863.59;4975566;28;8863;-56
2020/12/31 03:45:51;;;;;;;;;67.75;50.25;;;;;5.38;97.88;98858.78;4958009;28;8874;-56
2020/12/31 03:48:18;;;;;;;;;70.75;49.75;;;;;5.33;98.18;98867.00;4956298;28;8831;-54
2020/12/31 03:50:44;;;;;;;;;67.75;49.00;;;;;5.41;98.29;98859.47;4956454;28;8869;-56
2020/12/31 03:53:11;;;;;;;;;73.00;49.50;;;;;5.31;97.89;98858.22;4956068;28;8869;-54
2020/12/31 03:55:38;;;;;;;;;66.50;44.50;;;;;5.34;98.38;98860.72;4956395;28;8835;-58
2020/12/31 03:58:05;;;;;;;;;72.50;54.50;;;;;5.35;98.70;98857.13;4956366;28;8851;-52
2020/12/31 04:00:32;;;;;;;;;74.00;54.00;;;;;5.26;98.91;98860.28;4956574;28;8986;-53
2020/12/31 04:02:59;;;;;;;;;73.25;58.25;;;;;5.30;98.22;98861.84;4956602;28;8859;-55
2020/12/31 04:05:26;;;;;;;;;71.25;50.00;;;;;5.32;98.57;98862.63;4957144;28;9494;-51
2020/12/31 04:07:53;;;;;;;;;74.75;55.25;;;;;5.35;98.36;98856.28;4957045;28;8847;-54
2020/12/31 04:10:22;;;;;;;;;83.00;62.75;;;;;5.27;98.43;98854.03;4956220;28;8875;-53
2020/12/31 04:12:49;;;;;;;;;50.75;45.25;;;;;5.20;98.67;98853.47;4956661;29;8974;-54
2020/12/31 04:15:15;;;;;;;;;76.25;53.00;;;;;5.16;100.00;98851.06;4955796;29;8865;-55
2020/12/31 04:17:42;;;;;;;;;78.75;58.50;;;;;5.09;99.45;98847.03;4956475;28;8933;-54
2020/12/31 04:20:09;;;;;;;;;88.25;58.25;;;;;5.10;100.00;98843.41;4957221;29;8900;-55
2020/12/31 04:22:36;;;;;;;;;68.25;52.75;;;;;5.06;100.00;98848.03;4956554;29;8886;-54
2020/12/31 04:25:03;;;;;;;;;83.25;57.75;;;;;5.02;100.00;98851.78;4956484;29;8815;-54
2020/12/31 04:27:29;;;;;;;;;80.00;58.50;;;;;4.98;100.00;98851.09;4957003;28;8854;-53
2020/12/31 04:29:57;;;;;;;;;92.50;59.75;;;;;4.99;100.00;98850.16;4956327;29;8838;-54
2020/12/31 04:32:23;;;;;;;;;83.00;55.75;;;;;4.97;100.00;98846.69;4956475;28;8855;-52
2020/12/31 04:34:50;;;;;;;;;84.50;58.00;;;;;4.93;100.00;98847.81;4956754;28;8847;-57
2020/12/31 04:37:17;;;;;;;;;93.25;60.00;;;;;4.93;100.00;98842.50;4956389;29;8928;-50
2020/12/31 04:39:44;;;;;;;;;84.00;55.25;;;;;4.96;100.00;98845.00;4958220;28;8843;-53
2020/12/31 04:42:11;;;;;;;;;77.50;55.00;;;;;5.00;100.00;98830.59;4960128;28;8901;-55
2020/12/31 04:44:39;;;;;;;;;74.75;56.00;;;;;4.98;100.00;98835.13;4959712;28;8839;-56
2020/12/31 04:47:06;;;;;;;;;73.75;51.75;;;;;5.03;100.00;98837.56;4991592;28;8870;-57
2020/12/31 04:49:52;;;;;;;;;75.00;56.75;;;;;4.95;100.00;98829.97;4959283;28;8917;-54
2020/12/31 04:52:19;;;;;;;;;78.25;54.25;;;;;5.00;100.00;98822.63;4959026;28;8819;-55
2020/12/31 04:54:47;;;;;;;;;84.25;57.75;;;;;4.98;100.00;98824.50;4959693;28;8827;-57
2020/12/31 04:57:14;;;;;;;;;73.25;52.00;;;;;5.00;100.00;98827.94;4956669;28;8898;-57
2020/12/31 04:59:42;;;;;;;;;73.75;55.50;;;;;5.05;100.00;98833.88;4960177;28;8859;-56
2020/12/31 05:02:09;;;;;;;;;74.00;54.75;;;;;5.18;100.00;98831.41;4958286;28;8874;-51
2020/12/31 05:04:36;;;;;;;;;72.25;50.75;;;;;5.11;100.00;98831.81;4960284;28;8876;-52
2020/12/31 05:07:03;;;;;;;;;68.25;48.75;;;;;5.13;100.00;98829.94;4960138;28;8973;-54
2020/12/31 05:09:30;;;;;;;;;78.75;53.00;;;;;5.14;100.00;98834.34;4959597;28;9442;-51
2020/12/31 05:11:57;;;;;;;;;78.25;55.75;;;;;5.14;100.00;98839.66;4959635;28;8946;-56
2020/12/31 05:14:35;;;;;;;;;77.75;52.25;;;;;5.13;100.00;98840.56;4959575;28;9462;-54
2020/12/31 05:17:19;;;;;;;;;78.00;51.00;;;;;5.13;100.00;98841.44;4960023;28;8976;-53
2020/12/31 05:19:46;;;;;;;;;74.50;49.25;;;;;5.16;100.00;98843.06;4944525;28;8842;-56
2020/12/31 05:22:17;;;;;;;;;71.50;52.75;;;;;5.13;100.00;98837.91;4959104;28;8890;-56
2020/12/31 05:24:48;;;;;;;;;67.00;48.75;;;;;5.13;100.00;98840.56;4959404;28;8850;-56
2020/12/31 05:27:27;;;;;;;;;63.00;49.25;;;;;5.12;100.00;98837.06;4959144;28;8861;-55
2020/12/31 05:29:55;;;;;;;;;70.50;49.75;;;;;5.16;100.00;98835.09;4959573;28;8876;-56
2020/12/31 05:32:23;;;;;;;;;72.75;55.25;;;;;5.12;100.00;98830.88;4959575;28;8885;-56
2020/12/31 05:34:52;;;;;;;;;77.75;50.25;;;;;5.35;100.00;98827.00;4959159;28;8847;-54
2020/12/31 05:37:20;;;;;;;;;78.00;53.50;;;;;5.20;100.00;98828.69;4959636;28;8857;-54
2020/12/31 05:40:08;;;;;;;;;88.00;59.25;;;;;5.22;100.00;98830.31;4959231;28;8949;-53
2020/12/31 05:42:41;;;;;;;;;256.25;200.25;;;;;5.21;100.00;98836.59;4959039;28;8945;-54
2020/12/31 05:45:24;;;;;;;;;91.50;63.25;;;;;5.20;100.00;98832.19;4958228;28;8863;-50
2020/12/31 05:47:54;;;;;;;;;79.50;55.00;;;;;5.21;100.00;98846.34;4959062;28;8941;-52
2020/12/31 05:50:24;;;;;;;;;79.25;57.50;;;;;5.17;100.00;98840.34;4958115;28;8870;-53
2020/12/31 05:52:53;;;;;;;;;86.25;58.00;;;;;5.15;100.00;98849.34;4958089;28;8839;-53
2020/12/31 05:55:26;;;;;;;;;78.50;58.25;;;;;5.19;100.00;98842.94;4957969;28;8843;-53
2020/12/31 05:57:57;;;;;;;;;91.75;69.25;;;;;5.28;100.00;98847.75;4957817;28;8862;-53
2020/12/31 06:00:27;;;;;;;;;83.25;59.75;;;;;5.20;100.00;98845.50;4958531;28;8890;-55
2020/12/31 06:03:00;;;;;;;;;80.25;55.75;;;;;5.21;100.00;98851.66;4957657;28;8843;-54
2020/12/31 06:05:28;;;;;;;;;79.75;60.75;;;;;5.18;100.00;98858.00;4957810;28;8890;-51
2020/12/31 06:07:58;;;;;;;;;77.50;54.75;;;;;5.27;100.00;98848.69;4958235;28;8835;-51
2020/12/31 06:10:28;;;;;;;;;82.50;58.75;;;;;5.31;100.00;98852.91;4958520;28;9501;-55
2020/12/31 06:13:05;;;;;;;;;88.00;61.25;;;;;5.19;100.00;98857.09;4958766;28;8823;-55
2020/12/31 06:15:37;;;;;;;;;87.00;62.50;;;;;5.21;100.00;98847.22;4958858;28;8901;-53
2020/12/31 06:18:06;;;;;;;;;78.75;56.75;;;;;5.37;100.00;98857.03;4956914;28;8861;-50
2020/12/31 06:20:39;;;;;;;;;83.75;59.00;;;;;5.33;99.83;98852.84;4958496;28;8850;-53
2020/12/31 06:23:10;;;;;;;;;85.50;60.00;;;;;5.46;99.14;98845.91;4958042;28;8859;-55
2020/12/31 06:25:55;;;;;;;;;80.00;59.00;;;;;5.36;98.86;98850.00;4957384;28;9427;-54
2020/12/31 06:28:23;;;;;;;;;84.75;62.50;;;;;5.46;98.98;98856.56;4956808;28;8847;-56
2020/12/31 06:30:52;;;;;;;;;86.75;60.00;;;;;5.44;99.10;98853.97;4958351;28;8885;-54
2020/12/31 06:33:44;;;;;;;;;86.00;58.25;;;;;5.34;99.39;98841.22;4958186;28;8850;-54
2020/12/31 06:36:13;;;;;;;;;71.25;52.25;;;;;5.47;99.73;98844.94;4958363;28;8862;-54
2020/12/31 06:38:50;;;;;;;;;81.25;61.00;;;;;5.44;98.77;98853.09;4957373;28;8838;-54
2020/12/31 06:41:33;;;;;;;;;83.75;60.00;;;;;5.47;99.58;98848.47;4958389;28;8881;-53
2020/12/31 06:44:06;;;;;;;;;90.75;60.50;;;;;5.48;99.65;98855.53;4956800;28;8887;-54
2020/12/31 06:46:50;;;;;;;;;90.75;62.75;;;;;5.37;98.90;98857.91;4956528;28;8846;-54
2020/12/31 06:49:18;;;;;;;;;90.00;62.75;;;;;5.61;99.28;98858.38;4957663;28;8830;-53
2020/12/31 06:51:45;;;;;;;;;84.50;59.75;;;;;5.47;98.97;98861.78;4957783;28;9494;-52
2020/12/31 06:54:12;;;;;;;;;86.75;59.75;;;;;5.41;99.01;98863.94;4957503;28;8853;-57
2020/12/31 06:56:48;;;;;;;;;89.25;61.50;;;;;5.44;98.81;98861.94;4957635;28;8854;-55
2020/12/31 06:59:31;;;;;;;;;92.25;61.25;;;;;5.53;98.93;98862.38;4942718;28;8823;-55
2020/12/31 07:02:01;;;;;;;;;78.25;59.00;;;;;5.48;98.60;98866.19;4957206;28;8866;-57
2020/12/31 07:04:35;;;;;;;;;83.50;58.25;;;;;5.50;99.14;98869.63;4957751;28;8867;-57
2020/12/31 07:07:25;;;;;;;;;82.00;59.25;;;;;5.47;99.27;98864.44;4957114;28;8971;-55
2020/12/31 07:10:02;;;;;;;;;85.25;58.50;;;;;5.43;99.52;98867.38;4948254;28;8859;-52
2020/12/31 07:12:39;;;;;;;;;86.50;62.50;;;;;5.38;99.71;98854.31;4957668;28;8933;-54
2020/12/31 07:15:09;;;;;;;;;85.75;63.00;;;;;5.29;100.00;98860.09;4957259;28;8896;-55
2020/12/31 07:17:44;;;;;;;;;80.00;56.25;;;;;5.38;99.11;98859.63;4957664;28;8901;-52
2020/12/31 07:20:18;;;;;;;;;88.25;61.75;;;;;5.31;99.18;98865.34;4956867;28;8843;-53
2020/12/31 07:22:48;;;;;;;;;81.75;61.50;;;;;5.23;99.63;98868.41;4956974;28;8855;-53
2020/12/31 07:25:19;;;;;;;;;85.50;56.75;;;;;5.28;100.00;98866.38;4957068;28;8835;-53
2020/12/31 07:27:48;;;;;;;;;89.25;64.00;;;;;5.34;100.00;98866.03;4956860;28;8827;-51
2020/12/31 07:30:22;;;;;;;;;76.25;54.00;;;;;5.45;99.91;98877.00;4956718;28;8838;-52
2020/12/31 07:33:10;;;;;;;;;83.50;61.25;;;;;5.21;99.88;98873.84;4956850;28;8856;-55
2020/12/31 07:35:43;;;;;;;;;84.50;57.50;;;;;5.36;100.00;98877.47;4956779;28;9573;-55
2020/12/31 07:38:14;;;;;;;;;77.00;54.75;;;;;5.42;100.00;98877.13;4955688;28;8945;-51
2020/12/31 07:40:49;;;;;;;;;82.50;56.25;;;;;5.52;98.99;98877.50;4957446;28;8831;-52
2020/12/31 07:43:22;;;;;;;;;72.00;50.75;;;;;5.54;99.28;98874.78;4957260;28;8872;-54
2020/12/31 07:45:57;;;;;;;;;75.50;52.50;;;;;5.59;99.81;98881.56;4956946;28;8847;-54
2020/12/31 07:48:26;;;;;;;;;83.25;60.50;;;;;5.41;99.46;98883.41;4956880;28;8831;-55
2020/12/31 07:50:59;;;;;;;;;73.50;48.25;;;;;5.42;100.00;98884.25;4957209;28;8902;-54
2020/12/31 07:53:29;;;;;;;;;94.75;64.75;;;;;5.35;99.80;98875.75;4955989;28;8831;-56
2020/12/31 07:55:58;;;;;;;;;76.50;56.50;;;;;5.32;99.14;98878.59;4956693;28;8859;-55
2020/12/31 07:58:32;;;;;;;;;87.00;62.50;;;;;5.32;100.00;98877.72;4956272;28;8863;-57
2020/12/31 08:01:00;;;;;;;;;90.75;65.00;;;;;5.42;100.00;98889.59;4956271;28;8843;-55
2020/12/31 08:03:27;;;;;;;;;68.25;46.50;;;;;5.40;98.90;98881.72;4956468;28;8877;-56
2020/12/31 08:05:59;;;;;;;;;73.75;49.75;;;;;5.52;98.51;98882.84;4956009;28;8831;-57
2020/12/31 08:08:27;;;;;;;;;69.25;46.50;;;;;5.37;98.99;98887.19;4956543;28;8854;-57
2020/12/31 08:10:55;;;;;;;;;84.00;56.50;;;;;5.45;99.77;98882.31;4956557;28;8927;-56
2020/12/31 08:13:22;;;;;;;;;72.50;49.25;;;;;5.36;99.93;98888.13;4956888;28;8843;-53
2020/12/31 08:15:54;;;;;;;;;57.00;44.00;;;;;5.36;99.98;98885.47;4963343;28;8846;-53
2020/12/31 08:18:25;;;;;;;;;55.33;41.00;;;;;5.45;99.84;98887.66;4963139;28;9453;-56
2020/12/31 08:20:54;;;;;;;;;82.00;53.25;;;;;5.37;99.11;98889.84;4990376;28;8868;-51
2020/12/31 08:23:42;;;;;;;;;66.75;46.00;;;;;5.70;98.99;98886.31;4987222;28;8831;-56
2020/12/31 08:26:15;;;;;;;;;91.50;63.25;;;;;5.50;99.52;98890.03;4962313;28;9514;-56
2020/12/31 08:28:45;;;;;;;;;62.25;45.50;;;;;5.45;98.89;98887.66;4962727;28;8884;-55
2020/12/31 08:31:15;;;;;;;;;58.00;45.00;;;;;5.44;98.24;98890.38;4961869;28;8863;-55
2020/12/31 08:33:44;;;;;;;;;63.67;47.00;;;;;5.36;98.42;98893.44;4962884;28;8850;-57
2020/12/31 08:36:11;;;;;;;;;61.33;43.33;;;;;5.35;98.36;98891.75;4962799;28;8873;-57
2020/12/31 08:38:40;;;;;;;;;41.00;39.67;;;;;5.48;98.48;98892.81;4963007;28;8873;-57
2020/12/31 08:41:09;;;;;;;;;70.50;56.50;;;;;5.44;98.23;98893.88;4962858;28;8831;-54
2020/12/31 08:43:38;;;;;;;;;72.25;50.25;;;;;5.42;98.74;98887.78;4962399;28;8866;-53
2020/12/31 08:46:08;;;;;;;;;70.75;55.50;;;;;5.47;98.18;98893.72;4962543;28;8815;-51
2020/12/31 08:48:38;;;;;;;;;60.75;47.25;;;;;5.37;98.14;98892.53;4962728;28;8851;-54
2020/12/31 08:51:14;;;;;;;;;94.50;73.00;;;;;5.50;99.25;98888.25;4963095;28;8867;-55
2020/12/31 08:54:01;;;;;;;;;76.75;56.50;;;;;5.41;99.06;98890.53;4963000;28;8866;-52
2020/12/31 08:56:33;;;;;;;;;76.50;54.50;;;;;5.38;99.39;98891.56;4962234;28;8965;-56
2020/12/31 08:59:14;;;;;;;;;71.00;50.00;;;;;5.36;99.41;98889.94;4962881;28;8897;-54
2020/12/31 09:01:44;;;;;;;;;69.50;49.50;;;;;5.39;99.49;98890.63;4962575;28;8855;-54
2020/12/31 09:04:23;;;;;;;;;76.00;53.25;;;;;5.53;98.10;98887.25;4962748;28;8900;-51
2020/12/31 09:06:52;;;;;;;;;74.75;53.50;;;;;5.68;98.39;98888.19;4962109;28;8837;-54
2020/12/31 09:09:23;;;;;;;;;104.00;82.25;;;;;5.70;97.87;98891.63;4962216;28;8850;-56
2020/12/31 09:12:03;;;;;;;;;73.00;56.00;;;;;5.66;98.25;98882.97;4977694;28;8953;-55
2020/12/31 09:14:34;;;;;;;;;74.25;53.50;;;;;5.77;97.28;98890.38;4962884;28;8976;-54
2020/12/31 09:17:22;;;;;;;;;75.50;59.00;;;;;5.79;97.23;98891.13;4962370;28;8839;-55
2020/12/31 09:19:54;;;;;;;;;54.33;42.00;;;;;5.79;96.17;98880.47;4962626;28;8831;-54
2020/12/31 09:22:21;;;;;;;;;67.75;48.50;;;;;5.83;96.74;98879.38;4961914;28;8839;-53
2020/12/31 09:24:48;;;;;;;;;61.67;48.33;;;;;5.70;96.68;98875.66;4942927;29;8897;-51
2020/12/31 09:27:26;;;;;;;;;59.67;43.67;;;;;5.89;96.78;98875.50;4940406;29;8873;-54
2020/12/31 09:30:01;;;;;;;;;56.67;44.33;;;;;5.76;96.19;98880.63;4956865;28;8818;-57
2020/12/31 09:32:29;;;;;;;;;47.00;33.33;;;;;5.63;96.46;98868.94;4958742;28;8848;-58
2020/12/31 09:35:02;;;;;;;;;52.33;41.67;;;;;5.63;96.84;98874.25;4958870;28;8839;-57
2020/12/31 09:37:29;;;;;;;;;54.00;41.00;;;;;5.82;97.86;98863.44;4958890;28;8843;-54
2020/12/31 09:39:57;;;;;;;;;68.25;53.25;;;;;5.92;97.27;98865.53;4959186;28;8937;-55
2020/12/31 09:42:24;;;;;;;;;122.25;87.75;;;;;5.91;96.01;98868.28;4958558;28;8910;-55
2020/12/31 09:44:51;;;;;;;;;72.00;50.25;;;;;5.85;96.83;98861.50;4958759;28;8835;-56
2020/12/31 09:47:17;;;;;;;;;68.50;49.25;;;;;5.78;96.14;98869.91;4958405;28;9535;-57
2020/12/31 09:49:44;;;;;;;;;62.75;46.00;;;;;5.85;97.03;98858.84;4958860;28;8880;-56
2020/12/31 09:52:11;;;;;;;;;56.33;45.00;;;;;5.92;96.81;98860.22;4957127;28;8859;-56
2020/12/31 09:54:39;;;;;;;;;57.00;49.25;;;;;5.84;96.80;98857.09;4958710;28;8941;-55
2020/12/31 09:57:06;;;;;;;;;80.75;59.50;;;;;5.96;96.78;98852.09;4960904;28;9545;-52
2020/12/31 09:59:32;;;;;;;;;78.50;59.75;;;;;6.01;96.15;98858.00;4978073;28;9571;-55
2020/12/31 10:02:00;;;;;;;;;62.00;48.67;;;;;6.03;95.87;98849.00;4969095;28;8827;-56
2020/12/31 10:04:27;;;;;;;;;66.00;49.50;;;;;6.07;95.86;98847.00;4958330;28;8896;-55
2020/12/31 10:06:53;;;;;;;;;69.50;55.25;;;;;6.12;96.59;98847.59;4958627;28;8835;-53
2020/12/31 10:09:20;;;;;;;;;68.25;47.75;;;;;5.96;96.48;98844.09;4957620;28;8835;-56
2020/12/31 10:11:53;;;;;;;;;77.75;59.50;;;;;6.21;96.18;98839.06;4958914;28;8863;-51
2020/12/31 10:14:21;;;;;;;;;79.50;56.50;;;;;6.11;95.90;98840.56;4968609;28;8871;-54
2020/12/31 10:16:50;;;;;;;;;67.00;48.67;;;;;6.07;96.29;98831.88;4977834;28;8873;-54
2020/12/31 10:19:17;;;;;;;;;53.67;42.67;;;;;6.01;95.63;98837.56;4963820;28;8839;-54
2020/12/31 10:21:47;;;;;;;;;64.00;49.67;;;;;6.10;95.05;98844.16;4958025;28;8997;-53
2020/12/31 10:24:16;;;;;;;;;47.00;34.33;;;;;6.12;95.17;98845.78;4958400;28;8859;-56
2020/12/31 10:26:44;;;;;;;;;50.33;41.00;;;;;6.15;94.99;98834.09;4958958;28;8859;-52
2020/12/31 10:29:15;;;;;;;;;52.67;43.67;;;;;6.26;95.87;98834.31;4989580;28;9483;-53
2020/12/31 10:31:43;;;;;;;;;90.25;59.00;;;;;6.13;96.11;98833.31;4958533;28;8887;-53
2020/12/31 10:34:10;;;;;;;;;72.50;52.25;;;;;6.25;95.46;98837.09;4958326;28;8879;-50
2020/12/31 10:36:38;;;;;;;;;62.33;45.67;;;;;5.94;95.88;98830.84;4957520;28;8867;-53
2020/12/31 10:39:06;;;;;;;;;62.00;45.00;;;;;6.14;95.44;98822.59;4958113;28;8892;-52
2020/12/31 10:41:33;;;;;;;;;58.00;42.33;;;;;6.02;95.93;98823.28;4958078;28;8858;-54
2020/12/31 10:44:00;;;;;;;;;77.75;56.25;;;;;5.99;95.58;98819.94;4958311;28;8874;-53
2020/12/31 10:46:27;;;;;;;;;74.50;55.75;;;;;6.16;95.35;98814.47;4957250;28;8875;-54
2020/12/31 10:48:54;;;;;;;;;71.75;52.75;;;;;6.06;95.53;98813.31;4955167;28;8877;-55
2020/12/31 10:51:22;;;;;;;;;67.00;52.75;;;;;6.11;95.13;98806.78;4971209;28;8852;-53
2020/12/31 10:53:48;;;;;;;;;66.75;52.25;;;;;6.05;95.75;98806.25;4975948;28;8856;-50
2020/12/31 10:56:20;;;;;;;;;67.75;50.50;;;;;6.14;95.77;98811.06;4976062;28;8890;-55
2020/12/31 10:58:47;;;;;;;;;82.00;59.00;;;;;6.00;96.19;98803.84;4974803;28;8872;-53
2020/12/31 11:01:15;;;;;;;;;86.50;63.25;;;;;6.11;95.88;98800.59;4974970;28;8874;-50
2020/12/31 11:03:45;;;;;;;;;94.25;68.25;;;;;6.22;95.79;98794.63;4974720;28;9516;-53
2020/12/31 11:06:24;;;;;;;;;71.25;54.50;;;;;6.07;95.96;98794.56;4975026;28;8886;-52
2020/12/31 11:08:55;;;;;;;;;58.00;41.00;;;;;6.18;95.56;98785.09;4974468;28;8832;-55
2020/12/31 11:11:29;;;;;;;;;60.00;46.33;;;;;6.08;96.15;98795.41;4975836;28;8824;-54
2020/12/31 11:13:55;;;;;;;;;47.33;38.00;;;;;6.01;95.20;98788.75;4975476;28;9003;-54
2020/12/31 11:16:23;;;;;;;;;41.33;37.33;;;;;5.96;96.27;98785.47;4974698;28;8840;-56
2020/12/31 11:18:50;;;;;;;;;41.67;38.33;;;;;6.16;96.32;98787.81;4964998;28;8819;-54
2020/12/31 11:21:20;;;;;;;;;48.00;33.67;;;;;6.15;96.09;98780.78;4956530;28;8842;-54
2020/12/31 11:23:47;;;;;;;;;46.67;36.33;;;;;6.05;96.10;98779.59;4954862;28;8901;-55
2020/12/31 11:26:19;;;;;;;;;49.00;41.33;;;;;6.22;95.54;98775.97;4955222;28;8862;-54
2020/12/31 11:28:48;;;;;;;;;71.00;51.33;;;;;6.14;96.22;98771.09;4956188;28;8870;-54
2020/12/31 11:31:23;;;;;;;;;64.00;45.00;;;;;6.10;95.98;98775.72;4955461;28;8886;-55
2020/12/31 11:33:50;;;;;;;;;44.00;35.00;;;;;6.10;95.54;98764.22;4956012;28;8885;-56
2020/12/31 11:36:20;;;;;;;;;63.00;49.00;;;;;6.07;95.97;98767.06;4955310;28;8854;-56
2020/12/31 11:38:49;;;;;;;;;58.33;45.00;;;;;6.10;95.71;98762.41;4971575;28;8850;-55
2020/12/31 11:41:16;;;;;;;;;57.67;40.67;;;;;6.09;95.47;98770.50;4956064;28;8877;-57
2020/12/31 11:43:43;;;;;;;;;60.00;41.00;;;;;6.03;96.72;98766.38;4955200;28;8969;-55